LEMH/MAH METAR and TAF weather

Enter ICAO airport designator
Station Type Date Time Source
LEMH METAR 2020/11/27 14:00 UTC NOAA

LEMH 271400Z 12009KT 9999 FEW015 18/13 Q1009


Station Type Date Time Source
LEMH Decoded METAR 2020/11/27 14:00 UTC NOAA

Menorca / Mahon, Spain (LEMH) 39-52N 004-14E 82M
Nov 27, 2020 - 09:00 AM EST / 2020.11.27 1400 UTC
Wind: from the ESE (120 degrees) at 10 MPH (9 KT):0
Visibility: greater than 7 mile(s):0
Sky conditions: mostly clear
Temperature: 64 F (18 C)
Dew Point: 55 F (13 C)
Relative Humidity: 72%
Pressure (altimeter): 29.80 in. Hg (1009 hPa)
ob: LEMH 271400Z 12009KT 9999 FEW015 18/13 Q1009
cycle: 14

Station Type Date Time Source
LEMH TAF 2020/11/27 09:29 UTC NOAA

TAF LEMH 270800Z 2709/2809 10010KT 9999 FEW020 TX19/2712Z TN12/2806Z PROB40
TEMPO 2800/2806 4000 TSRA BKN014 FEW015CB PROB30
TEMPO 2721/2802 12017G27KT
BECMG 2801/2803 VRB05KT

Example: see airport list